createdAt,value
2022-11-10T00:03:34.283Z,17.50
2022-11-10T00:06:20.145Z,19.88
2022-11-10T00:09:06.450Z,19.27
2022-11-10T00:11:53.253Z,18.83
2022-11-10T00:14:57.502Z,17.67
2022-11-10T00:17:44.012Z,17.75
2022-11-10T00:20:30.104Z,19.92
2022-11-10T00:23:16.136Z,18.02
2022-11-10T00:26:02.127Z,20.02
2022-11-10T00:28:47.589Z,17.58
2022-11-10T00:31:36.105Z,19.17
2022-11-10T00:34:22.077Z,19.15
2022-11-10T00:37:07.799Z,17.65
2022-11-10T00:39:53.426Z,17.83
2022-11-10T00:42:39.448Z,19.15
2022-11-10T00:45:24.873Z,17.08
2022-11-10T00:48:10.960Z,18.42
2022-11-10T00:53:44.351Z,17.65
2022-11-10T00:56:30.328Z,18.83
2022-11-10T00:59:16.700Z,17.77
2022-11-10T01:02:05.000Z,17.85
2022-11-10T01:04:50.482Z,17.00
2022-11-10T01:07:38.467Z,17.50
2022-11-10T01:10:24.378Z,17.50
2022-11-10T01:13:12.834Z,18.77
2022-11-10T01:16:03.169Z,15.93
2022-11-10T01:18:53.838Z,16.58
2022-11-10T01:21:39.624Z,18.15
2022-11-10T01:24:25.062Z,17.58
2022-11-10T01:27:10.593Z,17.00
2022-11-10T01:29:56.800Z,16.67
2022-11-10T01:32:42.739Z,17.67
2022-11-10T01:38:17.157Z,17.20
2022-11-10T01:41:04.723Z,16.25
2022-11-10T01:43:50.405Z,16.38
2022-11-10T01:46:37.221Z,16.10
2022-11-10T01:52:15.912Z,17.85
2022-11-10T01:55:04.710Z,16.00
2022-11-10T01:57:52.627Z,16.98
2022-11-10T02:00:41.052Z,18.77
2022-11-10T02:03:41.219Z,16.65
2022-11-10T02:06:31.899Z,15.38
2022-11-10T02:09:17.968Z,17.13
2022-11-10T02:12:05.761Z,16.13
2022-11-10T02:14:51.644Z,16.52
2022-11-10T02:17:37.096Z,15.50
2022-11-10T02:20:22.649Z,16.60
2022-11-10T02:23:35.397Z,16.45
2022-11-10T02:26:27.391Z,15.93
2022-11-10T02:29:13.481Z,15.82
2022-11-10T02:32:00.255Z,16.27
2022-11-10T02:34:46.142Z,16.50
2022-11-10T02:37:39.403Z,16.67
2022-11-10T02:40:27.115Z,16.70
2022-11-10T02:43:17.606Z,17.33
2022-11-10T02:46:17.061Z,15.40
2022-11-10T02:49:02.904Z,15.07
2022-11-10T02:51:48.792Z,15.98
2022-11-10T02:54:36.523Z,15.00
2022-11-10T02:57:24.216Z,16.13
2022-11-10T03:00:12.530Z,16.75
2022-11-10T03:03:06.263Z,14.50
2022-11-10T03:05:52.225Z,15.80
2022-11-10T03:08:43.856Z,16.40
2022-11-10T03:11:33.734Z,15.02
2022-11-10T03:14:22.337Z,15.40
2022-11-10T03:17:08.517Z,15.82
2022-11-10T03:19:57.449Z,14.80
2022-11-10T03:22:43.310Z,14.27
2022-11-10T03:25:31.332Z,14.57
2022-11-10T03:28:18.169Z,14.25
2022-11-10T03:31:07.063Z,14.73
2022-11-10T03:33:53.719Z,14.70
2022-11-10T03:36:46.776Z,15.23
2022-11-10T03:39:32.258Z,13.90
2022-11-10T03:42:17.822Z,14.27
2022-11-10T03:45:06.939Z,14.90
2022-11-10T03:47:57.527Z,14.02
2022-11-10T03:50:43.440Z,13.93
2022-11-10T03:53:35.660Z,15.40
2022-11-10T03:56:31.962Z,13.60
2022-11-10T03:59:24.696Z,14.07
2022-11-10T04:02:12.963Z,14.65
2022-11-10T04:05:17.071Z,14.63
2022-11-10T04:08:21.537Z,14.27
2022-11-10T04:11:07.343Z,13.98
2022-11-10T04:14:11.430Z,13.18
2022-11-10T04:16:57.448Z,14.07
2022-11-10T04:19:43.217Z,13.68
2022-11-10T04:22:47.369Z,15.10
2022-11-10T04:25:52.955Z,13.75
2022-11-10T04:28:38.675Z,14.13
2022-11-10T04:31:27.553Z,14.35
2022-11-10T04:34:17.914Z,14.63
2022-11-10T04:37:03.262Z,12.90
2022-11-10T04:39:49.072Z,14.38
2022-11-10T04:42:34.780Z,14.02
2022-11-10T04:45:20.176Z,14.23
2022-11-10T04:48:08.539Z,15.02
2022-11-10T04:50:54.624Z,13.32
2022-11-10T04:53:40.298Z,12.98
2022-11-10T04:56:26.922Z,13.50
2022-11-10T04:59:12.829Z,14.85
2022-11-10T05:01:58.500Z,14.95
2022-11-10T05:04:47.205Z,14.43
2022-11-10T05:07:33.184Z,14.05
2022-11-10T05:10:19.130Z,15.45
2022-11-10T05:13:05.173Z,14.65
2022-11-10T05:15:53.486Z,14.85
2022-11-10T05:18:40.391Z,15.23
2022-11-10T05:21:25.950Z,12.77
2022-11-10T05:24:11.536Z,14.57
2022-11-10T05:26:56.933Z,13.75
2022-11-10T05:29:44.744Z,15.55
2022-11-10T05:32:30.242Z,14.80
2022-11-10T05:35:15.881Z,14.70
2022-11-10T05:38:01.770Z,14.70
2022-11-10T05:40:51.090Z,15.32
2022-11-10T05:43:36.676Z,14.95
2022-11-10T05:46:22.306Z,14.52
2022-11-10T05:49:08.292Z,13.77
2022-11-10T05:51:54.046Z,14.75
2022-11-10T05:54:39.835Z,16.58
2022-11-10T05:57:25.693Z,14.80
2022-11-10T06:00:12.564Z,15.65
2022-11-10T06:02:58.092Z,14.25
2022-11-10T06:05:43.292Z,14.25
2022-11-10T06:08:29.064Z,13.82
2022-11-10T06:11:14.471Z,13.95
2022-11-10T06:14:01.117Z,14.85
2022-11-10T06:16:47.745Z,14.73
2022-11-10T06:19:33.269Z,13.80
2022-11-10T06:22:21.789Z,15.40
2022-11-10T06:25:08.404Z,13.85
2022-11-10T06:27:54.652Z,14.10
2022-11-10T06:30:52.379Z,13.35
2022-11-10T06:33:38.143Z,13.70
2022-11-10T06:36:23.888Z,12.85
2022-11-10T06:39:12.771Z,12.75
2022-11-10T06:41:58.704Z,14.40
2022-11-10T06:44:47.519Z,13.65
2022-11-10T06:47:33.407Z,13.80
2022-11-10T06:50:23.298Z,13.00
2022-11-10T06:53:14.094Z,12.38
2022-11-10T06:56:00.581Z,13.85
2022-11-10T06:58:46.073Z,13.18
2022-11-10T07:01:32.074Z,11.00
2022-11-10T07:04:20.107Z,13.40
2022-11-10T07:07:06.362Z,14.02
2022-11-10T07:09:52.574Z,13.07
2022-11-10T07:12:38.183Z,14.82
2022-11-10T07:15:24.583Z,13.55
2022-11-10T07:18:10.293Z,15.98
2022-11-10T07:23:42.371Z,16.52
2022-11-10T07:29:16.703Z,13.90
2022-11-10T07:32:06.039Z,14.00
2022-11-10T07:34:52.119Z,17.90
2022-11-10T07:37:37.974Z,14.75
2022-11-10T07:43:17.339Z,15.15
2022-11-10T07:46:03.112Z,12.90
2022-11-10T07:48:48.938Z,13.85
2022-11-10T07:54:22.954Z,12.18
2022-11-10T07:57:08.546Z,12.95
2022-11-10T07:59:57.880Z,15.90
2022-11-10T08:02:44.260Z,14.20
2022-11-10T08:08:19.151Z,13.40
2022-11-10T08:11:05.807Z,11.95
2022-11-10T08:13:51.675Z,11.48
2022-11-10T08:16:37.367Z,12.93
2022-11-10T08:19:23.114Z,12.90
2022-11-10T08:22:08.920Z,14.98
2022-11-10T08:24:55.506Z,12.75
2022-11-10T08:27:41.090Z,12.63
2022-11-10T08:30:27.208Z,14.77
2022-11-10T08:33:14.763Z,11.70
2022-11-10T08:36:01.407Z,13.35
2022-11-10T08:38:47.024Z,13.52
2022-11-10T08:41:32.641Z,13.82
2022-11-10T08:44:21.032Z,13.88
2022-11-10T08:47:07.188Z,13.98
2022-11-10T08:49:52.872Z,14.00
2022-11-10T08:52:38.841Z,13.63
2022-11-10T08:58:15.023Z,15.15
2022-11-10T09:01:01.922Z,15.90
2022-11-10T09:04:00.119Z,14.27
2022-11-10T09:06:54.988Z,13.77
2022-11-10T09:09:40.879Z,14.65
2022-11-10T09:12:28.215Z,15.13
2022-11-10T09:15:21.389Z,15.10
2022-11-10T09:18:11.725Z,12.95
2022-11-10T09:20:57.876Z,14.88
2022-11-10T09:26:30.675Z,13.35
2022-11-10T09:29:20.869Z,15.70
2022-11-10T09:32:12.448Z,15.07
2022-11-10T09:34:58.847Z,13.90
2022-11-10T09:37:44.365Z,14.80
2022-11-10T09:40:34.580Z,13.80
2022-11-10T09:43:35.695Z,15.45
2022-11-10T09:46:27.092Z,13.52
2022-11-10T09:49:54.401Z,14.57
2022-11-10T09:52:44.873Z,16.40
2022-11-10T09:55:39.176Z,16.40
2022-11-10T09:58:33.727Z,15.25
2022-11-10T10:01:35.450Z,13.35
2022-11-10T10:04:44.394Z,14.85
2022-11-10T10:08:01.869Z,15.57
2022-11-10T10:10:57.840Z,15.00
2022-11-10T10:14:20.774Z,17.77
2022-11-10T10:17:27.219Z,15.30
2022-11-10T10:20:36.150Z,16.40
2022-11-10T10:24:21.494Z,16.13
2022-11-10T10:27:10.673Z,13.88
2022-11-10T10:29:58.922Z,16.63
2022-11-10T10:32:44.454Z,15.38
2022-11-10T10:35:41.454Z,15.82
2022-11-10T10:38:47.133Z,16.55
2022-11-10T10:41:35.239Z,16.52
2022-11-10T10:44:21.265Z,20.05
2022-11-10T10:49:52.959Z,18.13
2022-11-10T10:52:46.045Z,15.85
2022-11-10T10:55:32.407Z,16.70
2022-11-10T10:58:23.527Z,17.35
2022-11-10T11:01:18.455Z,18.88
2022-11-10T11:04:33.646Z,17.70
2022-11-10T11:07:26.304Z,18.30
2022-11-10T11:10:34.573Z,17.55
2022-11-10T11:13:28.358Z,16.52
2022-11-10T11:16:49.709Z,15.35
2022-11-10T11:19:55.732Z,14.15
2022-11-10T11:23:11.176Z,15.73
2022-11-10T11:26:29.822Z,12.70
2022-11-10T11:29:55.434Z,13.50
2022-11-10T11:33:27.312Z,19.10
2022-11-10T11:36:32.157Z,18.27
2022-11-10T11:39:51.758Z,15.90
2022-11-10T11:42:45.166Z,16.15
2022-11-10T11:46:00.277Z,17.80
2022-11-10T11:49:16.943Z,15.93
2022-11-10T11:52:35.083Z,16.30
2022-11-10T11:55:55.849Z,17.13
2022-11-10T11:59:05.897Z,20.27
2022-11-10T12:02:12.397Z,18.17
2022-11-10T12:05:17.034Z,18.55
2022-11-10T12:08:31.707Z,18.00
2022-11-10T12:11:25.529Z,21.17
2022-11-10T12:14:23.195Z,18.42
2022-11-10T12:17:33.199Z,16.38
2022-11-10T12:20:33.904Z,20.58
2022-11-10T12:23:43.995Z,20.83
2022-11-10T12:27:00.178Z,20.65
2022-11-10T12:29:57.144Z,21.52
2022-11-10T12:33:03.938Z,21.40
2022-11-10T12:38:48.073Z,18.23
2022-11-10T12:41:44.490Z,19.20
2022-11-10T12:44:46.235Z,18.17
2022-11-10T12:47:39.637Z,19.00
2022-11-10T12:50:48.916Z,16.75
2022-11-10T12:53:39.242Z,20.52
2022-11-10T12:56:30.116Z,20.33
2022-11-10T12:59:22.947Z,16.88
2022-11-10T13:02:18.040Z,18.70
2022-11-10T13:05:13.149Z,14.85
2022-11-10T13:08:23.483Z,16.38
2022-11-10T13:11:14.334Z,16.63
2022-11-10T13:14:05.449Z,15.73
2022-11-10T13:16:59.161Z,18.35
2022-11-10T13:19:51.919Z,16.73
2022-11-10T13:22:45.964Z,18.10
2022-11-10T13:25:42.816Z,16.65
2022-11-10T13:29:19.894Z,16.20
2022-11-10T13:32:11.723Z,15.03
2022-11-10T13:35:31.481Z,17.42
2022-11-10T13:38:38.944Z,18.25
2022-11-10T13:41:26.331Z,21.52
2022-11-10T13:44:36.874Z,17.08
2022-11-10T13:47:38.380Z,18.02
2022-11-10T13:50:44.734Z,18.25
2022-11-10T13:54:03.552Z,16.35
2022-11-10T13:57:27.039Z,18.10
2022-11-10T14:00:18.970Z,19.10
2022-11-10T14:03:08.647Z,21.38
2022-11-10T14:06:08.186Z,20.08
2022-11-10T14:09:06.576Z,19.10
2022-11-10T14:12:29.464Z,21.13
2022-11-10T14:15:28.348Z,20.40
2022-11-10T14:18:26.916Z,20.23
2022-11-10T14:21:45.721Z,20.90
2022-11-10T14:24:49.817Z,18.02
2022-11-10T14:27:56.677Z,19.50
2022-11-10T14:31:09.441Z,19.63
2022-11-10T14:33:59.630Z,18.40
2022-11-10T14:37:24.576Z,20.27
2022-11-10T14:40:21.264Z,17.23
2022-11-10T14:43:41.130Z,18.25
2022-11-10T14:46:38.391Z,18.58
2022-11-10T14:49:30.510Z,19.00
2022-11-10T14:52:19.715Z,19.58
2022-11-10T14:55:27.925Z,19.08
2022-11-10T14:58:19.413Z,18.77
2022-11-10T15:01:08.139Z,19.33
2022-11-10T15:03:54.081Z,21.92
2022-11-10T15:06:46.798Z,21.15
2022-11-10T15:09:37.797Z,23.27
2022-11-10T15:12:29.557Z,19.40
2022-11-10T15:15:25.561Z,19.70
2022-11-10T15:18:29.596Z,19.77
2022-11-10T15:21:21.836Z,18.77
2022-11-10T15:24:12.562Z,20.02
2022-11-10T15:27:17.652Z,22.23
2022-11-10T15:30:24.466Z,19.60
2022-11-10T15:33:16.332Z,20.92
2022-11-10T15:36:26.522Z,20.50
2022-11-10T15:39:26.522Z,20.52
2022-11-10T15:42:30.910Z,24.00
2022-11-10T15:45:17.405Z,21.05
2022-11-10T15:48:03.930Z,21.45
2022-11-10T15:51:02.058Z,21.10
2022-11-10T15:53:50.291Z,20.60
2022-11-10T15:56:38.199Z,20.08
2022-11-10T15:59:38.698Z,20.42
2022-11-10T16:02:28.939Z,18.40
2022-11-10T16:05:14.796Z,17.73
2022-11-10T16:08:07.015Z,19.95
2022-11-10T16:11:44.105Z,20.73
2022-11-10T16:14:20.405Z,21.40
2022-11-10T16:17:12.640Z,20.02
2022-11-10T16:20:31.998Z,21.00
2022-11-10T16:27:47.409Z,21.75
2022-11-10T16:30:28.227Z,20.05
2022-11-10T16:33:33.513Z,21.35
2022-11-10T16:36:49.526Z,20.85
2022-11-10T16:44:08.257Z,20.50
2022-11-10T16:49:47.808Z,21.50
2022-11-10T16:52:42.831Z,21.58
2022-11-10T16:56:00.149Z,22.23
2022-11-10T16:58:49.994Z,21.40
2022-11-10T17:01:52.869Z,24.30
2022-11-10T17:05:01.247Z,23.60
2022-11-10T17:11:21.144Z,21.00
2022-11-10T17:14:48.388Z,20.33
2022-11-10T17:17:27.489Z,17.88
2022-11-10T17:20:59.977Z,19.05
2022-11-10T17:23:49.673Z,19.02
2022-11-10T17:27:21.381Z,17.35
2022-11-10T17:30:21.157Z,17.95
2022-11-10T17:33:24.128Z,18.98
2022-11-10T17:36:40.565Z,17.15
2022-11-10T17:39:31.473Z,18.67
2022-11-10T17:42:31.428Z,19.73
2022-11-10T17:45:28.912Z,18.83
2022-11-10T17:48:19.307Z,18.25
2022-11-10T17:51:11.473Z,18.33
2022-11-10T17:54:05.835Z,17.77
2022-11-10T17:56:53.585Z,18.55
2022-11-10T18:00:03.785Z,19.70
2022-11-10T18:06:10.575Z,19.55
2022-11-10T18:08:59.751Z,19.70
2022-11-10T18:12:09.898Z,20.83
2022-11-10T18:15:18.210Z,20.50
2022-11-10T18:21:11.401Z,19.20
2022-11-10T18:24:05.502Z,18.52
2022-11-10T18:27:19.314Z,19.65
2022-11-10T18:30:11.869Z,19.55
2022-11-10T18:32:57.518Z,19.98
2022-11-10T18:35:49.805Z,21.10
2022-11-10T18:38:37.397Z,19.95
2022-11-10T18:41:44.910Z,19.55
2022-11-10T18:44:44.321Z,19.75
2022-11-10T18:47:30.172Z,18.58
2022-11-10T18:50:17.988Z,18.75
2022-11-10T18:53:04.356Z,17.95
2022-11-10T18:55:56.210Z,17.40
2022-11-10T18:58:42.820Z,18.02
2022-11-10T19:01:29.024Z,19.25
2022-11-10T19:04:15.125Z,18.23
2022-11-10T19:07:00.834Z,20.10
2022-11-10T19:12:47.176Z,19.83
2022-11-10T19:18:21.300Z,18.23
2022-11-10T19:21:30.392Z,17.40
2022-11-10T19:24:28.095Z,18.83
2022-11-10T19:27:15.315Z,21.90
2022-11-10T19:30:01.414Z,20.48
2022-11-10T19:32:49.899Z,19.55
2022-11-10T19:35:44.431Z,20.88
2022-11-10T19:38:31.341Z,21.20
2022-11-10T19:41:26.348Z,22.00
2022-11-10T19:44:15.810Z,20.23
2022-11-10T19:47:04.077Z,21.42
2022-11-10T19:49:52.952Z,21.08
2022-11-10T19:52:41.072Z,20.13
2022-11-10T19:55:34.957Z,20.27
2022-11-10T19:58:23.512Z,20.65
2022-11-10T20:01:15.999Z,21.92
2022-11-10T20:04:03.459Z,22.85
2022-11-10T20:07:09.352Z,21.95
2022-11-10T20:13:43.645Z,20.77
2022-11-10T20:16:40.963Z,19.67
2022-11-10T20:20:01.569Z,18.83
2022-11-10T20:27:06.490Z,19.73
2022-11-10T20:30:01.926Z,21.23
2022-11-10T20:32:51.024Z,20.38
2022-11-10T20:35:46.097Z,20.88
2022-11-10T20:38:34.434Z,20.63
2022-11-10T20:41:28.639Z,22.05
2022-11-10T20:44:14.488Z,20.75
2022-11-10T20:50:00.735Z,20.02
2022-11-10T20:52:50.015Z,21.52
2022-11-10T20:55:53.397Z,21.88
2022-11-10T20:58:45.160Z,21.17
2022-11-10T21:01:40.767Z,21.92
2022-11-10T21:04:43.014Z,21.60
2022-11-10T21:07:34.762Z,21.85
2022-11-10T21:10:20.736Z,23.33
2022-11-10T21:13:06.610Z,20.77
2022-11-10T21:16:04.328Z,21.10
2022-11-10T21:18:50.354Z,21.48
2022-11-10T21:21:41.372Z,21.88
2022-11-10T21:24:39.791Z,23.20
2022-11-10T21:27:28.732Z,21.50
2022-11-10T21:30:25.976Z,24.10
2022-11-10T21:33:12.025Z,22.40
2022-11-10T21:36:16.804Z,24.05
2022-11-10T21:39:02.449Z,24.65
2022-11-10T21:41:48.173Z,24.38
2022-11-10T21:44:33.884Z,23.48
2022-11-10T21:47:19.757Z,23.35
2022-11-10T21:50:07.012Z,22.25
2022-11-10T21:52:53.718Z,21.20
2022-11-10T21:55:39.419Z,23.40
2022-11-10T21:58:25.509Z,22.77
2022-11-10T22:01:19.366Z,21.23
2022-11-10T22:04:05.020Z,21.90
2022-11-10T22:07:10.388Z,22.75
2022-11-10T22:10:15.298Z,22.30
2022-11-10T22:13:19.506Z,21.23
2022-11-10T22:16:57.991Z,22.70
2022-11-10T22:19:44.819Z,23.20
2022-11-10T22:22:30.624Z,22.65
2022-11-10T22:25:16.880Z,21.60
2022-11-10T22:28:02.569Z,21.92
2022-11-10T22:30:49.224Z,22.50
2022-11-10T22:33:41.146Z,21.17
2022-11-10T22:36:27.112Z,21.20
2022-11-10T22:39:18.950Z,20.25
2022-11-10T22:42:23.338Z,20.83
2022-11-10T22:45:12.335Z,18.77
2022-11-10T22:48:19.947Z,19.38
2022-11-10T22:51:06.291Z,19.75
2022-11-10T22:56:40.342Z,18.90
2022-11-10T22:59:26.383Z,17.63
2022-11-10T23:02:12.730Z,19.15
2022-11-10T23:07:43.633Z,19.38
2022-11-10T23:10:29.522Z,18.55
2022-11-10T23:13:15.186Z,19.55
2022-11-10T23:16:09.834Z,20.27
2022-11-10T23:18:57.374Z,19.83
2022-11-10T23:21:43.448Z,19.92
2022-11-10T23:24:39.163Z,19.55
2022-11-10T23:27:24.950Z,18.95
2022-11-10T23:30:12.137Z,18.42
2022-11-10T23:33:01.615Z,19.27
2022-11-10T23:35:47.607Z,19.88
2022-11-10T23:38:37.323Z,19.77
2022-11-10T23:41:26.244Z,18.15
2022-11-10T23:44:12.141Z,18.80
2022-11-10T23:49:47.939Z,18.10
2022-11-10T23:52:34.682Z,18.40
2022-11-10T23:55:20.508Z,19.33
2022-11-10T23:58:05.809Z,18.35
